Back to Top

Language: 

My Weather Underground Personal Weather Station Historical Data with Graphs...

Delerius Weather Station Historical Data
Daily Summary for February 10, 2017 Units:  Both    English   Metric
« Previous Day
Next Day »
Daily Weekly Monthly Yearly Custom
  High: Low: Average:
Temperature: 36.3 °F /  2.4 °C 33.0 °F /  0.6 °C 34.2 °F /  1.2 °C
Dew Point: 34.2 °F /  1.2 °C 30.2 °F /  -1 °C 31.8 °F /  -0.1 °C
Humidity: 95 % 85 % 91 %
Wind Speed: 7.0 mph /  11.3 km/h - 3.1 mph /  5 km/h
Wind Gust: 10.0 mph /  16.1 km/h - -
Wind:- - ESE
Pressure: 30.34 in /  1027.3 hPa 30.31 in /  1026.3 hPa -
Precipitation: 0.01 in /  0.25 mm    
Historical Graphs
 
 
Tabular Data for February 10, 2017
Time Temperature Dew Point Pressure Wind Wind Speed Wind Gust Humidity Rainfall Rate (Hourly) solar Conditions
00:20 33.3 °F /  0.7 °C 31.8 °F /  -0.1 °C 30.34 in /  1027.3 hPa NE 3.0 mph /  4.8 km/h 3.0 mph /  4.8 km/h 94 % 0.00 in /  0 mm 0 W/m2
00:35 33.3 °F /  0.7 °C 32.0 °F /  0 °C 30.34 in /  1027.3 hPa NE 3.0 mph /  4.8 km/h 3.0 mph /  4.8 km/h 95 % 0.00 in /  0 mm 0 W/m2
00:40 33.3 °F /  0.7 °C 32.0 °F /  0 °C 30.33 in /  1027 hPa ENE 2.0 mph /  3.2 km/h 3.0 mph /  4.8 km/h 95 % 0.00 in /  0 mm 0 W/m2
00:45 33.3 °F /  0.7 °C 32.0 °F /  0 °C 30.34 in /  1027.3 hPa NE 1.0 mph /  1.6 km/h 3.0 mph /  4.8 km/h 95 % 0.00 in /  0 mm 0 W/m2
00:55 33.2 °F /  0.7 °C 31.9 °F /  -0.1 °C 30.33 in /  1027 hPa ENE 1.0 mph /  1.6 km/h 2.0 mph /  3.2 km/h 95 % 0.00 in /  0 mm 0 W/m2
01:05 33.2 °F /  0.7 °C 31.9 °F /  -0.1 °C 30.34 in /  1027.3 hPa NE 1.0 mph /  1.6 km/h 6.0 mph /  9.7 km/h 95 % 0.00 in /  0 mm 0 W/m2
01:10 33.2 °F /  0.7 °C 31.9 °F /  -0.1 °C 30.33 in /  1027 hPa NE 1.0 mph /  1.6 km/h 6.0 mph /  9.7 km/h 95 % 0.00 in /  0 mm 0 W/m2
01:15 33.2 °F /  0.7 °C 31.9 °F /  -0.1 °C 30.33 in /  1027 hPa NNE 2.0 mph /  3.2 km/h 6.0 mph /  9.7 km/h 95 % 0.00 in /  0 mm 0 W/m2
01:20 33.2 °F /  0.7 °C 31.9 °F /  -0.1 °C 30.34 in /  1027.3 hPa NE 2.0 mph /  3.2 km/h 2.0 mph /  3.2 km/h 95 % 0.00 in /  0 mm 0 W/m2
01:25 33.2 °F /  0.7 °C 31.9 °F /  -0.1 °C 30.34 in /  1027.3 hPa NE 2.0 mph /  3.2 km/h 4.0 mph /  6.4 km/h 95 % 0.00 in /  0 mm 0 W/m2
01:35 33.2 °F /  0.7 °C 31.9 °F /  -0.1 °C 30.33 in /  1027 hPa NE 2.0 mph /  3.2 km/h 6.0 mph /  9.7 km/h 95 % 0.00 in /  0 mm 0 W/m2
01:40 33.2 °F /  0.7 °C 31.9 °F /  -0.1 °C 30.33 in /  1027 hPa NE 3.0 mph /  4.8 km/h 3.0 mph /  4.8 km/h 95 % 0.00 in /  0 mm 0 W/m2
01:45 33.2 °F /  0.7 °C 31.9 °F /  -0.1 °C 30.34 in /  1027.3 hPa NE 2.0 mph /  3.2 km/h 6.0 mph /  9.7 km/h 95 % 0.00 in /  0 mm 0 W/m2
01:50 33.2 °F /  0.7 °C 31.9 °F /  -0.1 °C 30.34 in /  1027.3 hPa NE 2.0 mph /  3.2 km/h 6.0 mph /  9.7 km/h 95 % 0.00 in /  0 mm 0 W/m2
01:55 33.2 °F /  0.7 °C 31.9 °F /  -0.1 °C 30.33 in /  1027 hPa ENE 2.0 mph /  3.2 km/h 6.0 mph /  9.7 km/h 95 % 0.00 in /  0 mm 0 W/m2
02:00 33.2 °F /  0.7 °C 31.9 °F /  -0.1 °C 30.34 in /  1027.3 hPa ENE 1.0 mph /  1.6 km/h 1.0 mph /  1.6 km/h 95 % 0.00 in /  0 mm 0 W/m2
02:10 33.2 °F /  0.7 °C 31.9 °F /  -0.1 °C 30.34 in /  1027.3 hPa ENE 1.0 mph /  1.6 km/h 6.0 mph /  9.7 km/h 95 % 0.00 in /  0 mm 0 W/m2
02:15 33.2 °F /  0.7 °C 31.9 °F /  -0.1 °C 30.34 in /  1027.3 hPa ENE 1.0 mph /  1.6 km/h 6.0 mph /  9.7 km/h 95 % 0.00 in /  0 mm 0 W/m2
02:20 33.2 °F /  0.7 °C 31.9 °F /  -0.1 °C 30.33 in /  1027 hPa NE 2.0 mph /  3.2 km/h 6.0 mph /  9.7 km/h 95 % 0.00 in /  0 mm 0 W/m2
02:25 33.2 °F /  0.7 °C 31.9 °F /  -0.1 °C 30.33 in /  1027 hPa NE 2.0 mph /  3.2 km/h 6.0 mph /  9.7 km/h 95 % 0.00 in /  0 mm 0 W/m2
02:35 33.2 °F /  0.7 °C 31.9 °F /  -0.1 °C 30.33 in /  1027 hPa ENE 1.0 mph /  1.6 km/h 6.0 mph /  9.7 km/h 95 % 0.00 in /  0 mm 0 W/m2
02:40 33.1 °F /  0.6 °C 31.8 °F /  -0.1 °C 30.33 in /  1027 hPa NE 2.0 mph /  3.2 km/h 2.0 mph /  3.2 km/h 95 % 0.00 in /  0 mm 0 W/m2
02:45 33.1 °F /  0.6 °C 31.8 °F /  -0.1 °C 30.33 in /  1027 hPa ENE 2.0 mph /  3.2 km/h 6.0 mph /  9.7 km/h 95 % 0.00 in /  0 mm 0 W/m2
02:55 33.1 °F /  0.6 °C 31.8 °F /  -0.1 °C 30.33 in /  1027 hPa ENE 1.0 mph /  1.6 km/h 3.0 mph /  4.8 km/h 95 % 0.00 in /  0 mm 0 W/m2
03:00 33.1 °F /  0.6 °C 31.8 °F /  -0.1 °C 30.32 in /  1026.6 hPa ENE 1.0 mph /  1.6 km/h 6.0 mph /  9.7 km/h 95 % 0.00 in /  0 mm 0 W/m2
03:05 33.1 °F /  0.6 °C 31.8 °F /  -0.1 °C 30.32 in /  1026.6 hPa ENE 1.0 mph /  1.6 km/h 6.0 mph /  9.7 km/h 95 % 0.00 in /  0 mm 0 W/m2
03:10 33.1 °F /  0.6 °C 31.8 °F /  -0.1 °C 30.32 in /  1026.6 hPa ENE 2.0 mph /  3.2 km/h 6.0 mph /  9.7 km/h 95 % 0.00 in /  0 mm 0 W/m2
03:20 33.1 °F /  0.6 °C 31.8 °F /  -0.1 °C 30.32 in /  1026.6 hPa NE 4.0 mph /  6.4 km/h 4.0 mph /  6.4 km/h 95 % 0.00 in /  0 mm 0 W/m2
03:25 33.1 °F /  0.6 °C 31.8 °F /  -0.1 °C 30.32 in /  1026.6 hPa ENE 4.0 mph /  6.4 km/h 5.0 mph /  8 km/h 95 % 0.00 in /  0 mm 0 W/m2
03:30 33.1 °F /  0.6 °C 31.8 °F /  -0.1 °C 30.32 in /  1026.6 hPa NE 3.0 mph /  4.8 km/h 6.0 mph /  9.7 km/h 95 % 0.00 in /  0 mm 0 W/m2
03:35 33.1 °F /  0.6 °C 31.8 °F /  -0.1 °C 30.32 in /  1026.6 hPa ENE 3.0 mph /  4.8 km/h 6.0 mph /  9.7 km/h 95 % 0.00 in /  0 mm 0 W/m2
03:40 33.1 °F /  0.6 °C 31.8 °F /  -0.1 °C 30.32 in /  1026.6 hPa ENE 3.0 mph /  4.8 km/h 7.0 mph /  11.3 km/h 95 % 0.00 in /  0 mm 0 W/m2
03:50 33.1 °F /  0.6 °C 31.8 °F /  -0.1 °C 30.32 in /  1026.6 hPa ENE 3.0 mph /  4.8 km/h 3.0 mph /  4.8 km/h 95 % 0.00 in /  0 mm 0 W/m2
03:55 33.1 °F /  0.6 °C 31.8 °F /  -0.1 °C 30.32 in /  1026.6 hPa NNE 3.0 mph /  4.8 km/h 4.0 mph /  6.4 km/h 95 % 0.00 in /  0 mm 0 W/m2
04:00 33.1 °F /  0.6 °C 31.6 °F /  -0.2 °C 30.32 in /  1026.6 hPa NE 2.0 mph /  3.2 km/h 6.0 mph /  9.7 km/h 94 % 0.00 in /  0 mm 0 W/m2
04:05 33.1 °F /  0.6 °C 31.6 °F /  -0.2 °C 30.32 in /  1026.6 hPa ENE 2.0 mph /  3.2 km/h 6.0 mph /  9.7 km/h 94 % 0.00 in /  0 mm 0 W/m2
04:10 33.1 °F /  0.6 °C 31.6 °F /  -0.2 °C 30.32 in /  1026.6 hPa ENE 2.0 mph /  3.2 km/h 2.0 mph /  3.2 km/h 94 % 0.00 in /  0 mm 0 W/m2
04:20 33.1 °F /  0.6 °C 31.8 °F /  -0.1 °C 30.32 in /  1026.6 hPa NE 1.0 mph /  1.6 km/h 1.0 mph /  1.6 km/h 95 % 0.00 in /  0 mm 0 W/m2
04:25 33.1 °F /  0.6 °C 31.6 °F /  -0.2 °C 30.32 in /  1026.6 hPa NE 1.0 mph /  1.6 km/h 6.0 mph /  9.7 km/h 94 % 0.00 in /  0 mm 0 W/m2
04:30 33.1 °F /  0.6 °C 31.6 °F /  -0.2 °C 30.32 in /  1026.6 hPa ENE 1.0 mph /  1.6 km/h 6.0 mph /  9.7 km/h 94 % 0.00 in /  0 mm 0 W/m2
04:35 33.1 °F /  0.6 °C 31.6 °F /  -0.2 °C 30.32 in /  1026.6 hPa ENE 1.0 mph /  1.6 km/h 6.0 mph /  9.7 km/h 94 % 0.00 in /  0 mm 0 W/m2
04:40 33.1 °F /  0.6 °C 31.6 °F /  -0.2 °C 30.32 in /  1026.6 hPa ENE 1.0 mph /  1.6 km/h 6.0 mph /  9.7 km/h 94 % 0.00 in /  0 mm 0 W/m2
04:45 33.1 °F /  0.6 °C 31.6 °F /  -0.2 °C 30.32 in /  1026.6 hPa Calm   6.0 mph /  9.7 km/h 94 % 0.00 in /  0 mm 0 W/m2
04:55 33.1 °F /  0.6 °C 31.6 °F /  -0.2 °C 30.32 in /  1026.6 hPa Calm   2.0 mph /  3.2 km/h 94 % 0.00 in /  0 mm 0 W/m2
05:00 33.1 °F /  0.6 °C 31.6 °F /  -0.2 °C 30.31 in /  1026.3 hPa Calm   6.0 mph /  9.7 km/h 94 % 0.00 in /  0 mm 0 W/m2
05:05 33.1 °F /  0.6 °C 31.6 °F /  -0.2 °C 30.31 in /  1026.3 hPa ENE 1.0 mph /  1.6 km/h 6.0 mph /  9.7 km/h 94 % 0.00 in /  0 mm 0 W/m2
05:10 33.1 °F /  0.6 °C 31.6 °F /  -0.2 °C 30.32 in /  1026.6 hPa ENE 1.0 mph /  1.6 km/h 1.0 mph /  1.6 km/h 94 % 0.00 in /  0 mm 0 W/m2
05:15 33.1 °F /  0.6 °C 31.6 °F /  -0.2 °C 30.32 in /  1026.6 hPa ENE 1.0 mph /  1.6 km/h 6.0 mph /  9.7 km/h 94 % 0.00 in /  0 mm 0 W/m2
05:25 33.0 °F /  0.6 °C 31.5 °F /  -0.3 °C 30.32 in /  1026.6 hPa NNE 1.0 mph /  1.6 km/h 6.0 mph /  9.7 km/h 94 % 0.00 in /  0 mm 0 W/m2
05:30 33.1 °F /  0.6 °C 31.6 °F /  -0.2 °C 30.32 in /  1026.6 hPa NE 1.0 mph /  1.6 km/h 6.0 mph /  9.7 km/h 94 % 0.00 in /  0 mm 0 W/m2
05:35 33.0 °F /  0.6 °C 31.5 °F /  -0.3 °C 30.32 in /  1026.6 hPa NE 1.0 mph /  1.6 km/h 6.0 mph /  9.7 km/h 94 % 0.00 in /  0 mm 0 W/m2
05:40 33.0 °F /  0.6 °C 31.5 °F /  -0.3 °C 30.32 in /  1026.6 hPa NE 1.0 mph /  1.6 km/h 6.0 mph /  9.7 km/h 94 % 0.00 in /  0 mm 0 W/m2
05:45 33.1 °F /  0.6 °C 31.6 °F /  -0.2 °C 30.32 in /  1026.6 hPa NE 2.0 mph /  3.2 km/h 6.0 mph /  9.7 km/h 94 % 0.00 in /  0 mm 0 W/m2
05:50 33.1 °F /  0.6 °C 31.6 °F /  -0.2 °C 30.32 in /  1026.6 hPa NE 2.0 mph /  3.2 km/h 6.0 mph /  9.7 km/h 94 % 0.00 in /  0 mm 0 W/m2
06:00 33.1 °F /  0.6 °C 31.6 °F /  -0.2 °C 30.32 in /  1026.6 hPa NE 3.0 mph /  4.8 km/h 6.0 mph /  9.7 km/h 94 % 0.00 in /  0 mm 0 W/m2
06:05 33.1 °F /  0.6 °C 31.6 °F /  -0.2 °C 30.32 in /  1026.6 hPa NE 3.0 mph /  4.8 km/h 6.0 mph /  9.7 km/h 94 % 0.00 in /  0 mm 0 W/m2
06:10 33.1 °F /  0.6 °C 31.6 °F /  -0.2 °C 30.32 in /  1026.6 hPa NE 3.0 mph /  4.8 km/h 3.0 mph /  4.8 km/h 94 % 0.00 in /  0 mm 0 W/m2
06:15 33.1 °F /  0.6 °C 31.6 °F /  -0.2 °C 30.32 in /  1026.6 hPa ENE 2.0 mph /  3.2 km/h 5.0 mph /  8 km/h 94 % 0.00 in /  0 mm 0 W/m2
06:20 33.1 °F /  0.6 °C 31.6 °F /  -0.2 °C 30.31 in /  1026.3 hPa NE 1.0 mph /  1.6 km/h 6.0 mph /  9.7 km/h 94 % 0.00 in /  0 mm 0 W/m2
06:30 33.1 °F /  0.6 °C 31.6 °F /  -0.2 °C 30.31 in /  1026.3 hPa NE 3.0 mph /  4.8 km/h 3.0 mph /  4.8 km/h 94 % 0.00 in /  0 mm 0 W/m2
06:35 33.1 °F /  0.6 °C 31.6 °F /  -0.2 °C 30.32 in /  1026.6 hPa NE 1.0 mph /  1.6 km/h 6.0 mph /  9.7 km/h 94 % 0.00 in /  0 mm 0 W/m2
06:40 33.1 °F /  0.6 °C 31.6 °F /  -0.2 °C 30.32 in /  1026.6 hPa Calm   6.0 mph /  9.7 km/h 94 % 0.00 in /  0 mm 0 W/m2
06:45 33.1 °F /  0.6 °C 31.6 °F /  -0.2 °C 30.32 in /  1026.6 hPa NNE 1.0 mph /  1.6 km/h 6.0 mph /  9.7 km/h 94 % 0.00 in /  0 mm 0 W/m2
06:50 33.0 °F /  0.6 °C 31.5 °F /  -0.3 °C 30.32 in /  1026.6 hPa NNE 1.0 mph /  1.6 km/h 6.0 mph /  9.7 km/h 94 % 0.00 in /  0 mm 0 W/m2
06:55 33.1 °F /  0.6 °C 31.6 °F /  -0.2 °C 30.32 in /  1026.6 hPa NNE 1.0 mph /  1.6 km/h 6.0 mph /  9.7 km/h 94 % 0.00 in /  0 mm 0 W/m2
07:05 33.1 °F /  0.6 °C 31.6 °F /  -0.2 °C 30.32 in /  1026.6 hPa NNE 2.0 mph /  3.2 km/h 6.0 mph /  9.7 km/h 94 % 0.00 in /  0 mm 0 W/m2
07:10 33.1 °F /  0.6 °C 31.3 °F /  -0.4 °C 30.32 in /  1026.6 hPa NNE 3.0 mph /  4.8 km/h 3.0 mph /  4.8 km/h 93 % 0.00 in /  0 mm 0 W/m2
07:15 33.2 °F /  0.7 °C 31.4 °F /  -0.3 °C 30.32 in /  1026.6 hPa NNE 4.0 mph /  6.4 km/h 4.0 mph /  6.4 km/h 93 % 0.00 in /  0 mm 0 W/m2
07:20 33.2 °F /  0.7 °C 31.4 °F /  -0.3 °C 30.32 in /  1026.6 hPa NE 4.0 mph /  6.4 km/h 4.0 mph /  6.4 km/h 93 % 0.00 in /  0 mm 0 W/m2
07:25 33.2 °F /  0.7 °C 31.4 °F /  -0.3 °C 30.32 in /  1026.6 hPa NE 2.0 mph /  3.2 km/h 6.0 mph /  9.7 km/h 93 % 0.00 in /  0 mm 0 W/m2
07:35 33.2 °F /  0.7 °C 31.4 °F /  -0.3 °C 30.32 in /  1026.6 hPa NE 1.0 mph /  1.6 km/h 6.0 mph /  9.7 km/h 93 % 0.00 in /  0 mm 0 W/m2
07:40 33.3 °F /  0.7 °C 31.5 °F /  -0.3 °C 30.32 in /  1026.6 hPa NE 1.0 mph /  1.6 km/h 1.0 mph /  1.6 km/h 93 % 0.00 in /  0 mm 0 W/m2
07:45 33.2 °F /  0.7 °C 31.4 °F /  -0.3 °C 30.33 in /  1027 hPa Calm   6.0 mph /  9.7 km/h 93 % 0.00 in /  0 mm 0 W/m2
07:50 33.3 °F /  0.7 °C 31.5 °F /  -0.3 °C 30.33 in /  1027 hPa Calm   6.0 mph /  9.7 km/h 93 % 0.00 in /  0 mm 0 W/m2
07:55 33.3 °F /  0.7 °C 31.5 °F /  -0.3 °C 30.33 in /  1027 hPa Calm   6.0 mph /  9.7 km/h 93 % 0.00 in /  0 mm 0 W/m2
08:00 33.3 °F /  0.7 °C 31.5 °F /  -0.3 °C 30.32 in /  1026.6 hPa North 2.0 mph /  3.2 km/h 7.0 mph /  11.3 km/h 93 % 0.00 in /  0 mm 7 W/m2
08:10 33.3 °F /  0.7 °C 31.2 °F /  -0.4 °C 30.33 in /  1027 hPa NE 3.0 mph /  4.8 km/h 3.0 mph /  4.8 km/h 92 % 0.00 in /  0 mm 5 W/m2
08:15 33.4 °F /  0.8 °C 31.3 °F /  -0.4 °C 30.33 in /  1027 hPa NNE 3.0 mph /  4.8 km/h 8.0 mph /  12.9 km/h 92 % 0.00 in /  0 mm 12 W/m2
08:20 33.4 °F /  0.8 °C 31.1 °F /  -0.5 °C 30.33 in /  1027 hPa NE 3.0 mph /  4.8 km/h 6.0 mph /  9.7 km/h 91 % 0.00 in /  0 mm 16 W/m2
08:25 33.4 °F /  0.8 °C 31.1 °F /  -0.5 °C 30.33 in /  1027 hPa NE 3.0 mph /  4.8 km/h 6.0 mph /  9.7 km/h 91 % 0.00 in /  0 mm 18 W/m2
08:30 33.5 °F /  0.8 °C 31.2 °F /  -0.4 °C 30.33 in /  1027 hPa NE 3.0 mph /  4.8 km/h 6.0 mph /  9.7 km/h 91 % 0.00 in /  0 mm 30 W/m2
08:40 33.6 °F /  0.9 °C 31.3 °F /  -0.4 °C 30.33 in /  1027 hPa NE 3.0 mph /  4.8 km/h 6.0 mph /  9.7 km/h 91 % 0.00 in /  0 mm 40 W/m2
08:45 33.6 °F /  0.9 °C 31.3 °F /  -0.4 °C 30.33 in /  1027 hPa ENE 3.0 mph /  4.8 km/h 6.0 mph /  9.7 km/h 91 % 0.00 in /  0 mm 37 W/m2
08:50 33.7 °F /  0.9 °C 31.4 °F /  -0.3 °C 30.33 in /  1027 hPa NE 3.0 mph /  4.8 km/h 6.0 mph /  9.7 km/h 91 % 0.00 in /  0 mm 39 W/m2
08:55 33.8 °F /  1 °C 31.5 °F /  -0.3 °C 30.33 in /  1027 hPa NE 2.0 mph /  3.2 km/h 6.0 mph /  9.7 km/h 91 % 0.00 in /  0 mm 37 W/m2
09:00 33.9 °F /  1.1 °C 31.8 °F /  -0.1 °C 30.33 in /  1027 hPa NE 2.0 mph /  3.2 km/h 6.0 mph /  9.7 km/h 92 % 0.00 in /  0 mm 51 W/m2
09:05 33.9 °F /  1.1 °C 31.6 °F /  -0.2 °C 30.33 in /  1027 hPa ENE 3.0 mph /  4.8 km/h 6.0 mph /  9.7 km/h 91 % 0.00 in /  0 mm 47 W/m2
09:15 34.0 °F /  1.1 °C 31.6 °F /  -0.2 °C 30.33 in /  1027 hPa NE 3.0 mph /  4.8 km/h 6.0 mph /  9.7 km/h 91 % 0.00 in /  0 mm 62 W/m2
09:20 34.1 °F /  1.2 °C 31.7 °F /  -0.2 °C 30.33 in /  1027 hPa NE 3.0 mph /  4.8 km/h 3.0 mph /  4.8 km/h 91 % 0.00 in /  0 mm 76 W/m2
09:25 34.2 °F /  1.2 °C 31.8 °F /  -0.1 °C 30.33 in /  1027 hPa ENE 3.0 mph /  4.8 km/h 4.0 mph /  6.4 km/h 91 % 0.00 in /  0 mm 98 W/m2
09:35 34.3 °F /  1.3 °C 31.9 °F /  -0.1 °C 30.33 in /  1027 hPa NNE 4.0 mph /  6.4 km/h 6.0 mph /  9.7 km/h 91 % 0.00 in /  0 mm 77 W/m2
09:40 34.3 °F /  1.3 °C 31.9 °F /  -0.1 °C 30.33 in /  1027 hPa ENE 5.0 mph /  8 km/h 5.0 mph /  8 km/h 91 % 0.00 in /  0 mm 62 W/m2
09:45 34.4 °F /  1.3 °C 32.0 °F /  0 °C 30.33 in /  1027 hPa NE 4.0 mph /  6.4 km/h 6.0 mph /  9.7 km/h 91 % 0.00 in /  0 mm 88 W/m2
09:55 34.5 °F /  1.4 °C 32.1 °F /  0.1 °C 30.33 in /  1027 hPa NE 3.0 mph /  4.8 km/h 7.0 mph /  11.3 km/h 91 % 0.00 in /  0 mm 67 W/m2
10:00 34.6 °F /  1.4 °C 32.2 °F /  0.1 °C 30.33 in /  1027 hPa NE 2.0 mph /  3.2 km/h 2.0 mph /  3.2 km/h 91 % 0.00 in /  0 mm 63 W/m2
10:05 34.7 °F /  1.5 °C 32.1 °F /  0.1 °C 30.33 in /  1027 hPa NNE 3.0 mph /  4.8 km/h 3.0 mph /  4.8 km/h 90 % 0.00 in /  0 mm 62 W/m2
10:10 34.8 °F /  1.6 °C 32.2 °F /  0.1 °C 30.33 in /  1027 hPa NE 3.0 mph /  4.8 km/h 3.0 mph /  4.8 km/h 90 % 0.00 in /  0 mm 37 W/m2
10:15 34.8 °F /  1.6 °C 32.2 °F /  0.1 °C 30.33 in /  1027 hPa ENE 2.0 mph /  3.2 km/h 6.0 mph /  9.7 km/h 90 % 0.00 in /  0 mm 42 W/m2
10:20 34.8 °F /  1.6 °C 32.2 °F /  0.1 °C 30.33 in /  1027 hPa ENE 3.0 mph /  4.8 km/h 6.0 mph /  9.7 km/h 90 % 0.00 in /  0 mm 33 W/m2
10:25 34.7 °F /  1.5 °C 32.1 °F /  0.1 °C 30.33 in /  1027 hPa NE 4.0 mph /  6.4 km/h 6.0 mph /  9.7 km/h 90 % 0.00 in /  0 mm 39 W/m2
10:30 34.7 °F /  1.5 °C 32.1 °F /  0.1 °C 30.33 in /  1027 hPa ENE 5.0 mph /  8 km/h 5.0 mph /  8 km/h 90 % 0.00 in /  0 mm 23 W/m2
10:35 34.7 °F /  1.5 °C 32.1 °F /  0.1 °C 30.33 in /  1027 hPa ENE 5.0 mph /  8 km/h 6.0 mph /  9.7 km/h 90 % 0.00 in /  0 mm 51 W/m2
10:40 34.8 °F /  1.6 °C 32.2 °F /  0.1 °C 30.34 in /  1027.3 hPa ENE 4.0 mph /  6.4 km/h 4.0 mph /  6.4 km/h 90 % 0.00 in /  0 mm 60 W/m2
10:50 34.9 °F /  1.6 °C 32.5 °F /  0.3 °C 30.34 in /  1027.3 hPa ENE 4.0 mph /  6.4 km/h 6.0 mph /  9.7 km/h 91 % 0.00 in /  0 mm 76 W/m2
10:55 34.9 °F /  1.6 °C 32.5 °F /  0.3 °C 30.34 in /  1027.3 hPa ENE 5.0 mph /  8 km/h 6.0 mph /  9.7 km/h 91 % 0.00 in /  0 mm 90 W/m2
11:00 35.0 °F /  1.7 °C 32.6 °F /  0.3 °C 30.33 in /  1027 hPa NE 4.0 mph /  6.4 km/h 6.0 mph /  9.7 km/h 91 % 0.00 in /  0 mm 95 W/m2
11:05 35.1 °F /  1.7 °C 32.7 °F /  0.4 °C 30.33 in /  1027 hPa ESE 3.0 mph /  4.8 km/h 6.0 mph /  9.7 km/h 91 % 0.00 in /  0 mm 109 W/m2
11:10 35.2 °F /  1.8 °C 32.8 °F /  0.4 °C 30.33 in /  1027 hPa NE 3.0 mph /  4.8 km/h 3.0 mph /  4.8 km/h 91 % 0.00 in /  0 mm 148 W/m2
11:20 35.6 °F /  2 °C 33.2 °F /  0.7 °C 30.33 in /  1027 hPa NNE 3.0 mph /  4.8 km/h 6.0 mph /  9.7 km/h 91 % 0.00 in /  0 mm 60 W/m2
11:25 35.7 °F /  2.1 °C 33.1 °F /  0.6 °C 30.34 in /  1027.3 hPa ESE 4.0 mph /  6.4 km/h 6.0 mph /  9.7 km/h 90 % 0.00 in /  0 mm 98 W/m2
11:30 35.6 °F /  2 °C 33.0 °F /  0.6 °C 30.34 in /  1027.3 hPa NE 6.0 mph /  9.7 km/h 6.0 mph /  9.7 km/h 90 % 0.00 in /  0 mm 56 W/m2
11:35 35.4 °F /  1.9 °C 32.8 °F /  0.4 °C 30.34 in /  1027.3 hPa NNE 7.0 mph /  11.3 km/h 7.0 mph /  11.3 km/h 90 % 0.00 in /  0 mm 37 W/m2
11:45 34.7 °F /  1.5 °C 32.3 °F /  0.2 °C 30.34 in /  1027.3 hPa ENE 6.0 mph /  9.7 km/h 7.0 mph /  11.3 km/h 91 % 0.00 in /  0 mm 60 W/m2
11:50 34.6 °F /  1.4 °C 32.5 °F /  0.3 °C 30.33 in /  1027 hPa NNE 4.0 mph /  6.4 km/h 4.0 mph /  6.4 km/h 92 % 0.00 in /  0 mm 107 W/m2
11:55 34.6 °F /  1.4 °C 32.8 °F /  0.4 °C 30.33 in /  1027 hPa NE 3.0 mph /  4.8 km/h 7.0 mph /  11.3 km/h 93 % 0.00 in /  0 mm 102 W/m2
12:00 34.6 °F /  1.4 °C 32.8 °F /  0.4 °C 30.33 in /  1027 hPa NE 4.0 mph /  6.4 km/h 4.0 mph /  6.4 km/h 93 % 0.00 in /  0 mm 86 W/m2
12:05 34.7 °F /  1.5 °C 32.9 °F /  0.5 °C 30.33 in /  1027 hPa East 4.0 mph /  6.4 km/h 6.0 mph /  9.7 km/h 93 % 0.00 in /  0 mm 95 W/m2
12:10 34.8 °F /  1.6 °C 33.0 °F /  0.6 °C 30.33 in /  1027 hPa ENE 3.0 mph /  4.8 km/h 6.0 mph /  9.7 km/h 93 % 0.00 in /  0 mm 67 W/m2
12:15 34.8 °F /  1.6 °C 33.0 °F /  0.6 °C 30.33 in /  1027 hPa NE 4.0 mph /  6.4 km/h 6.0 mph /  9.7 km/h 93 % 0.00 in /  0 mm 70 W/m2
12:20 34.8 °F /  1.6 °C 33.0 °F /  0.6 °C 30.33 in /  1027 hPa NE 4.0 mph /  6.4 km/h 4.0 mph /  6.4 km/h 93 % 0.00 in /  0 mm 44 W/m2
12:30 34.8 °F /  1.6 °C 33.0 °F /  0.6 °C 30.33 in /  1027 hPa North 3.0 mph /  4.8 km/h 3.0 mph /  4.8 km/h 93 % 0.00 in /  0 mm 90 W/m2
12:35 34.9 °F /  1.6 °C 33.1 °F /  0.6 °C 30.33 in /  1027 hPa East 2.0 mph /  3.2 km/h 6.0 mph /  9.7 km/h 93 % 0.00 in /  0 mm 81 W/m2
12:40 35.0 °F /  1.7 °C 33.2 °F /  0.7 °C 30.33 in /  1027 hPa NE 4.0 mph /  6.4 km/h 6.0 mph /  9.7 km/h 93 % 0.00 in /  0 mm 69 W/m2
12:45 35.0 °F /  1.7 °C 33.2 °F /  0.7 °C 30.33 in /  1027 hPa NE 5.0 mph /  8 km/h 6.0 mph /  9.7 km/h 93 % 0.00 in /  0 mm 139 W/m2
12:50 35.1 °F /  1.7 °C 33.3 °F /  0.7 °C 30.33 in /  1027 hPa NE 4.0 mph /  6.4 km/h 6.0 mph /  9.7 km/h 93 % 0.00 in /  0 mm 179 W/m2
13:00 35.6 °F /  2 °C 33.8 °F /  1 °C 30.32 in /  1026.6 hPa ENE 3.0 mph /  4.8 km/h 3.0 mph /  4.8 km/h 93 % 0.00 in /  0 mm 134 W/m2
13:05 35.8 °F /  2.1 °C 34.0 °F /  1.1 °C 30.32 in /  1026.6 hPa ENE 1.0 mph /  1.6 km/h 6.0 mph /  9.7 km/h 93 % 0.00 in /  0 mm 162 W/m2
13:10 36.0 °F /  2.2 °C 34.2 °F /  1.2 °C 30.32 in /  1026.6 hPa North 2.0 mph /  3.2 km/h 6.0 mph /  9.7 km/h 93 % 0.00 in /  0 mm 171 W/m2
13:15 36.0 °F /  2.2 °C 33.9 °F /  1.1 °C 30.32 in /  1026.6 hPa NNE 4.0 mph /  6.4 km/h 6.0 mph /  9.7 km/h 92 % 0.00 in /  0 mm 142 W/m2
13:20 36.1 °F /  2.3 °C 34.0 °F /  1.1 °C 30.32 in /  1026.6 hPa ENE 4.0 mph /  6.4 km/h 4.0 mph /  6.4 km/h 92 % 0.00 in /  0 mm 90 W/m2
13:30 36.1 °F /  2.3 °C 33.7 °F /  0.9 °C 30.32 in /  1026.6 hPa NE 4.0 mph /  6.4 km/h 4.0 mph /  6.4 km/h 91 % 0.00 in /  0 mm 95 W/m2
13:40 35.9 °F /  2.2 °C 33.3 °F /  0.7 °C 30.32 in /  1026.6 hPa East 4.0 mph /  6.4 km/h 4.0 mph /  6.4 km/h 90 % 0.00 in /  0 mm 199 W/m2
13:45 35.8 °F /  2.1 °C 33.2 °F /  0.7 °C 30.32 in /  1026.6 hPa East 5.0 mph /  8 km/h 10.0 mph /  16.1 km/h 90 % 0.00 in /  0 mm 127 W/m2
13:50 35.7 °F /  2.1 °C 33.1 °F /  0.6 °C 30.32 in /  1026.6 hPa ENE 5.0 mph /  8 km/h 6.0 mph /  9.7 km/h 90 % 0.00 in /  0 mm 128 W/m2
13:55 35.8 °F /  2.1 °C 33.2 °F /  0.7 °C 30.32 in /  1026.6 hPa ENE 4.0 mph /  6.4 km/h 6.0 mph /  9.7 km/h 90 % 0.00 in /  0 mm 120 W/m2
14:00 36.0 °F /  2.2 °C 33.6 °F /  0.9 °C 30.32 in /  1026.6 hPa NE 3.0 mph /  4.8 km/h 8.0 mph /  12.9 km/h 91 % 0.00 in /  0 mm 47 W/m2
14:10 36.1 °F /  2.3 °C 33.7 °F /  0.9 °C 30.32 in /  1026.6 hPa ENE 5.0 mph /  8 km/h 5.0 mph /  8 km/h 91 % 0.00 in /  0 mm 171 W/m2
14:15 36.2 °F /  2.3 °C 33.8 °F /  1 °C 30.32 in /  1026.6 hPa ENE 4.0 mph /  6.4 km/h 6.0 mph /  9.7 km/h 91 % 0.00 in /  0 mm 197 W/m2
14:20 36.3 °F /  2.4 °C 33.6 °F /  0.9 °C 30.32 in /  1026.6 hPa NNE 5.0 mph /  8 km/h 6.0 mph /  9.7 km/h 90 % 0.00 in /  0 mm 84 W/m2
14:25 36.3 °F /  2.4 °C 33.6 °F /  0.9 °C 30.32 in /  1026.6 hPa ENE 6.0 mph /  9.7 km/h 8.0 mph /  12.9 km/h 90 % 0.00 in /  0 mm 35 W/m2
14:30 36.1 °F /  2.3 °C 33.2 °F /  0.7 °C 30.32 in /  1026.6 hPa NE 7.0 mph /  11.3 km/h 9.0 mph /  14.5 km/h 89 % 0.00 in /  0 mm 46 W/m2
14:40 35.8 °F /  2.1 °C 32.9 °F /  0.5 °C 30.32 in /  1026.6 hPa East 5.0 mph /  8 km/h 5.0 mph /  8 km/h 89 % 0.00 in /  0 mm 62 W/m2
14:45 35.8 °F /  2.1 °C 33.2 °F /  0.7 °C 30.32 in /  1026.6 hPa NE 4.0 mph /  6.4 km/h 6.0 mph /  9.7 km/h 90 % 0.00 in /  0 mm 83 W/m2
14:50 35.8 °F /  2.1 °C 32.9 °F /  0.5 °C 30.31 in /  1026.3 hPa NNE 4.0 mph /  6.4 km/h 4.0 mph /  6.4 km/h 89 % 0.00 in /  0 mm 86 W/m2
14:55 35.8 °F /  2.1 °C 32.9 °F /  0.5 °C 30.31 in /  1026.3 hPa NNE 3.0 mph /  4.8 km/h 6.0 mph /  9.7 km/h 89 % 0.00 in /  0 mm 93 W/m2
15:00 35.9 °F /  2.2 °C 33.0 °F /  0.6 °C 30.32 in /  1026.6 hPa ENE 3.0 mph /  4.8 km/h 6.0 mph /  9.7 km/h 89 % 0.00 in /  0 mm 91 W/m2
15:05 36.0 °F /  2.2 °C 33.1 °F /  0.6 °C 30.32 in /  1026.6 hPa NE 3.0 mph /  4.8 km/h 6.0 mph /  9.7 km/h 89 % 0.00 in /  0 mm 90 W/m2
15:15 36.1 °F /  2.3 °C 33.2 °F /  0.7 °C 30.32 in /  1026.6 hPa ENE 4.0 mph /  6.4 km/h 6.0 mph /  9.7 km/h 89 % 0.00 in /  0 mm 65 W/m2
15:20 36.1 °F /  2.3 °C 33.2 °F /  0.7 °C 30.31 in /  1026.3 hPa NNE 4.0 mph /  6.4 km/h 4.0 mph /  6.4 km/h 89 % 0.00 in /  0 mm 63 W/m2
15:25 36.1 °F /  2.3 °C 33.2 °F /  0.7 °C 30.32 in /  1026.6 hPa ENE 4.0 mph /  6.4 km/h 6.0 mph /  9.7 km/h 89 % 0.00 in /  0 mm 54 W/m2
15:30 36.1 °F /  2.3 °C 33.2 °F /  0.7 °C 30.32 in /  1026.6 hPa NE 5.0 mph /  8 km/h 5.0 mph /  8 km/h 89 % 0.00 in /  0 mm 28 W/m2
15:35 36.2 °F /  2.3 °C 33.3 °F /  0.7 °C 30.32 in /  1026.6 hPa ENE 5.0 mph /  8 km/h 10.0 mph /  16.1 km/h 89 % 0.00 in /  0 mm 33 W/m2
15:45 36.2 °F /  2.3 °C 33.3 °F /  0.7 °C 30.32 in /  1026.6 hPa NE 5.0 mph /  8 km/h 6.0 mph /  9.7 km/h 89 % 0.00 in /  0 mm 21 W/m2
15:50 36.2 °F /  2.3 °C 33.3 °F /  0.7 °C 30.32 in /  1026.6 hPa North 4.0 mph /  6.4 km/h 4.0 mph /  6.4 km/h 89 % 0.00 in /  0 mm 11 W/m2
15:55 36.0 °F /  2.2 °C 33.1 °F /  0.6 °C 30.32 in /  1026.6 hPa NNE 5.0 mph /  8 km/h 8.0 mph /  12.9 km/h 89 % 0.00 in /  0 mm 12 W/m2
16:00 35.7 °F /  2.1 °C 32.8 °F /  0.4 °C 30.32 in /  1026.6 hPa ENE 6.0 mph /  9.7 km/h 7.0 mph /  11.3 km/h 89 % 0.00 in /  0 mm 11 W/m2
16:05 35.4 °F /  1.9 °C 32.8 °F /  0.4 °C 30.32 in /  1026.6 hPa NE 5.0 mph /  8 km/h 7.0 mph /  11.3 km/h 90 % 0.00 in /  0 mm 9 W/m2
16:10 35.1 °F /  1.7 °C 32.5 °F /  0.3 °C 30.32 in /  1026.6 hPa NE 5.0 mph /  8 km/h 10.0 mph /  16.1 km/h 90 % 0.00 in /  0 mm 11 W/m2
16:20 34.8 °F /  1.6 °C 32.4 °F /  0.2 °C 30.32 in /  1026.6 hPa NNW 3.0 mph /  4.8 km/h 6.0 mph /  9.7 km/h 91 % 0.00 in /  0 mm 14 W/m2
16:25 34.8 °F /  1.6 °C 32.4 °F /  0.2 °C 30.32 in /  1026.6 hPa NNE 2.0 mph /  3.2 km/h 6.0 mph /  9.7 km/h 91 % 0.00 in /  0 mm 16 W/m2
16:30 34.7 °F /  1.5 °C 32.3 °F /  0.2 °C 30.32 in /  1026.6 hPa NE 2.0 mph /  3.2 km/h 2.0 mph /  3.2 km/h 91 % 0.00 in /  0 mm 12 W/m2
16:35 34.7 °F /  1.5 °C 32.3 °F /  0.2 °C 30.32 in /  1026.6 hPa NNE 1.0 mph /  1.6 km/h 6.0 mph /  9.7 km/h 91 % 0.00 in /  0 mm 11 W/m2
16:40 34.7 °F /  1.5 °C 32.3 °F /  0.2 °C 30.32 in /  1026.6 hPa NE 2.0 mph /  3.2 km/h 2.0 mph /  3.2 km/h 91 % 0.00 in /  0 mm 9 W/m2
16:50 34.7 °F /  1.5 °C 32.1 °F /  0.1 °C 30.32 in /  1026.6 hPa East 2.0 mph /  3.2 km/h 2.0 mph /  3.2 km/h 90 % 0.00 in /  0 mm 7 W/m2
16:55 34.7 °F /  1.5 °C 32.1 °F /  0.1 °C 30.32 in /  1026.6 hPa NNE 2.0 mph /  3.2 km/h 5.0 mph /  8 km/h 90 % 0.00 in /  0 mm 7 W/m2
17:05 34.7 °F /  1.5 °C 32.1 °F /  0.1 °C 30.32 in /  1026.6 hPa NE 2.0 mph /  3.2 km/h 6.0 mph /  9.7 km/h 90 % 0.00 in /  0 mm 0 W/m2
17:10 34.7 °F /  1.5 °C 32.1 °F /  0.1 °C 30.32 in /  1026.6 hPa North 3.0 mph /  4.8 km/h 6.0 mph /  9.7 km/h 90 % 0.00 in /  0 mm 0 W/m2
17:15 34.6 °F /  1.4 °C 31.7 °F /  -0.2 °C 30.32 in /  1026.6 hPa NNE 4.0 mph /  6.4 km/h 6.0 mph /  9.7 km/h 89 % 0.00 in /  0 mm 0 W/m2
17:20 34.6 °F /  1.4 °C 31.7 °F /  -0.2 °C 30.32 in /  1026.6 hPa NNE 4.0 mph /  6.4 km/h 6.0 mph /  9.7 km/h 89 % 0.00 in /  0 mm 0 W/m2
17:30 34.5 °F /  1.4 °C 31.6 °F /  -0.2 °C 30.32 in /  1026.6 hPa NE 4.0 mph /  6.4 km/h 4.0 mph /  6.4 km/h 89 % 0.00 in /  0 mm 0 W/m2
17:35 34.5 °F /  1.4 °C 31.6 °F /  -0.2 °C 30.32 in /  1026.6 hPa NNW 5.0 mph /  8 km/h 6.0 mph /  9.7 km/h 89 % 0.00 in /  0 mm 0 W/m2
17:40 34.5 °F /  1.4 °C 31.6 °F /  -0.2 °C 30.32 in /  1026.6 hPa NE 3.0 mph /  4.8 km/h 6.0 mph /  9.7 km/h 89 % 0.00 in /  0 mm 0 W/m2
17:45 34.5 °F /  1.4 °C 31.6 °F /  -0.2 °C 30.33 in /  1027 hPa ENE 3.0 mph /  4.8 km/h 6.0 mph /  9.7 km/h 89 % 0.00 in /  0 mm 0 W/m2
17:50 34.5 °F /  1.4 °C 31.3 °F /  -0.4 °C 30.33 in /  1027 hPa NE 3.0 mph /  4.8 km/h 3.0 mph /  4.8 km/h 88 % 0.00 in /  0 mm 0 W/m2
17:55 34.5 °F /  1.4 °C 31.3 °F /  -0.4 °C 30.33 in /  1027 hPa NNE 3.0 mph /  4.8 km/h 4.0 mph /  6.4 km/h 88 % 0.00 in /  0 mm 0 W/m2
18:00 34.5 °F /  1.4 °C 31.3 °F /  -0.4 °C 30.33 in /  1027 hPa NNE 2.0 mph /  3.2 km/h 2.0 mph /  3.2 km/h 88 % 0.00 in /  0 mm 0 W/m2
18:05 34.6 °F /  1.4 °C 31.4 °F /  -0.3 °C 30.33 in /  1027 hPa NNE 2.0 mph /  3.2 km/h 4.0 mph /  6.4 km/h 88 % 0.00 in /  0 mm 0 W/m2
18:10 34.6 °F /  1.4 °C 31.4 °F /  -0.3 °C 30.33 in /  1027 hPa NNE 3.0 mph /  4.8 km/h 6.0 mph /  9.7 km/h 88 % 0.00 in /  0 mm 0 W/m2
18:20 34.5 °F /  1.4 °C 31.0 °F /  -0.6 °C 30.33 in /  1027 hPa NNE 2.0 mph /  3.2 km/h 2.0 mph /  3.2 km/h 87 % 0.00 in /  0 mm 0 W/m2
18:30 34.5 °F /  1.4 °C 31.0 °F /  -0.6 °C 30.33 in /  1027 hPa Calm   6.0 mph /  9.7 km/h 87 % 0.00 in /  0 mm 0 W/m2
18:40 34.5 °F /  1.4 °C 31.0 °F /  -0.6 °C 30.33 in /  1027 hPa NE 2.0 mph /  3.2 km/h 2.0 mph /  3.2 km/h 87 % 0.00 in /  0 mm 0 W/m2
18:50 34.4 °F /  1.3 °C 30.9 °F /  -0.6 °C 30.33 in /  1027 hPa NE 2.0 mph /  3.2 km/h 4.0 mph /  6.4 km/h 87 % 0.00 in /  0 mm 0 W/m2
19:00 34.4 °F /  1.3 °C 30.6 °F /  -0.8 °C 30.33 in /  1027 hPa NNW 5.0 mph /  8 km/h 5.0 mph /  8 km/h 86 % 0.00 in /  0 mm 0 W/m2
19:10 34.4 °F /  1.3 °C 30.9 °F /  -0.6 °C 30.33 in /  1027 hPa NW 3.0 mph /  4.8 km/h 3.0 mph /  4.8 km/h 87 % 0.00 in /  0 mm 0 W/m2
19:15 34.3 °F /  1.3 °C 30.8 °F /  -0.7 °C 30.34 in /  1027.3 hPa NNW 3.0 mph /  4.8 km/h 3.0 mph /  4.8 km/h 87 % 0.00 in /  0 mm 0 W/m2
19:20 34.3 °F /  1.3 °C 30.8 °F /  -0.7 °C 30.34 in /  1027.3 hPa North 2.0 mph /  3.2 km/h 2.0 mph /  3.2 km/h 87 % 0.00 in /  0 mm 0 W/m2
19:25 34.3 °F /  1.3 °C 30.8 °F /  -0.7 °C 30.34 in /  1027.3 hPa North 2.0 mph /  3.2 km/h 5.0 mph /  8 km/h 87 % 0.00 in /  0 mm 0 W/m2
19:35 34.3 °F /  1.3 °C 30.8 °F /  -0.7 °C 30.34 in /  1027.3 hPa NNW 4.0 mph /  6.4 km/h 5.0 mph /  8 km/h 87 % 0.00 in /  0 mm 0 W/m2
19:40 34.2 °F /  1.2 °C 30.7 °F /  -0.7 °C 30.34 in /  1027.3 hPa NNW 4.0 mph /  6.4 km/h 7.0 mph /  11.3 km/h 87 % 0.00 in /  0 mm 0 W/m2
19:45 34.2 °F /  1.2 °C 30.7 °F /  -0.7 °C 30.34 in /  1027.3 hPa NNW 3.0 mph /  4.8 km/h 7.0 mph /  11.3 km/h 87 % 0.00 in /  0 mm 0 W/m2
19:50 34.2 °F /  1.2 °C 30.7 °F /  -0.7 °C 30.34 in /  1027.3 hPa NNE 3.0 mph /  4.8 km/h 3.0 mph /  4.8 km/h 87 % 0.00 in /  0 mm 0 W/m2
19:55 34.2 °F /  1.2 °C 30.7 °F /  -0.7 °C 30.34 in /  1027.3 hPa North 3.0 mph /  4.8 km/h 7.0 mph /  11.3 km/h 87 % 0.00 in /  0 mm 0 W/m2
20:05 34.3 °F /  1.3 °C 30.5 °F /  -0.8 °C 30.34 in /  1027.3 hPa North 6.0 mph /  9.7 km/h 8.0 mph /  12.9 km/h 86 % 0.00 in /  0 mm 0 W/m2
20:10 34.3 °F /  1.3 °C 30.5 °F /  -0.8 °C 30.34 in /  1027.3 hPa NNW 5.0 mph /  8 km/h 8.0 mph /  12.9 km/h 86 % 0.00 in /  0 mm 0 W/m2
20:15 34.3 °F /  1.3 °C 30.5 °F /  -0.8 °C 30.34 in /  1027.3 hPa NNE 4.0 mph /  6.4 km/h 8.0 mph /  12.9 km/h 86 % 0.00 in /  0 mm 0 W/m2
20:20 34.3 °F /  1.3 °C 30.5 °F /  -0.8 °C 30.34 in /  1027.3 hPa NNE 3.0 mph /  4.8 km/h 9.0 mph /  14.5 km/h 86 % 0.00 in /  0 mm 0 W/m2
20:25 34.3 °F /  1.3 °C 30.5 °F /  -0.8 °C 30.33 in /  1027 hPa NNE 4.0 mph /  6.4 km/h 9.0 mph /  14.5 km/h 86 % 0.00 in /  0 mm 0 W/m2
20:30 34.3 °F /  1.3 °C 30.5 °F /  -0.8 °C 30.34 in /  1027.3 hPa NNW 3.0 mph /  4.8 km/h 8.0 mph /  12.9 km/h 86 % 0.00 in /  0 mm 0 W/m2
20:40 34.3 °F /  1.3 °C 30.3 °F /  -0.9 °C 30.33 in /  1027 hPa NW 5.0 mph /  8 km/h 5.0 mph /  8 km/h 85 % 0.00 in /  0 mm 0 W/m2
20:45 34.3 °F /  1.3 °C 30.3 °F /  -0.9 °C 30.33 in /  1027 hPa NNW 5.0 mph /  8 km/h 7.0 mph /  11.3 km/h 85 % 0.00 in /  0 mm 0 W/m2
20:50 34.3 °F /  1.3 °C 30.3 °F /  -0.9 °C 30.33 in /  1027 hPa NNW 4.0 mph /  6.4 km/h 8.0 mph /  12.9 km/h 85 % 0.00 in /  0 mm 0 W/m2
20:55 34.3 °F /  1.3 °C 30.3 °F /  -0.9 °C 30.33 in /  1027 hPa NNE 4.0 mph /  6.4 km/h 8.0 mph /  12.9 km/h 85 % 0.00 in /  0 mm 0 W/m2
21:00 34.2 °F /  1.2 °C 30.2 °F /  -1 °C 30.33 in /  1027 hPa NNW 4.0 mph /  6.4 km/h 8.0 mph /  12.9 km/h 85 % 0.00 in /  0 mm 0 W/m2
21:05 34.3 °F /  1.3 °C 30.3 °F /  -0.9 °C 30.33 in /  1027 hPa North 5.0 mph /  8 km/h 8.0 mph /  12.9 km/h 85 % 0.00 in /  0 mm 0 W/m2
21:10 34.3 °F /  1.3 °C 30.3 °F /  -0.9 °C 30.33 in /  1027 hPa NNW 5.0 mph /  8 km/h 5.0 mph /  8 km/h 85 % 0.00 in /  0 mm 0 W/m2
21:20 34.3 °F /  1.3 °C 30.3 °F /  -0.9 °C 30.33 in /  1027 hPa NW 4.0 mph /  6.4 km/h 4.0 mph /  6.4 km/h 85 % 0.00 in /  0 mm 0 W/m2
21:25 34.3 °F /  1.3 °C 30.3 °F /  -0.9 °C 30.33 in /  1027 hPa NNE 3.0 mph /  4.8 km/h 7.0 mph /  11.3 km/h 85 % 0.00 in /  0 mm 0 W/m2
21:30 34.3 °F /  1.3 °C 30.3 °F /  -0.9 °C 30.33 in /  1027 hPa North 4.0 mph /  6.4 km/h 8.0 mph /  12.9 km/h 85 % 0.00 in /  0 mm 0 W/m2
21:40 34.4 °F /  1.3 °C 30.4 °F /  -0.9 °C 30.33 in /  1027 hPa NNE 6.0 mph /  9.7 km/h 8.0 mph /  12.9 km/h 85 % 0.00 in /  0 mm 0 W/m2
21:45 34.4 °F /  1.3 °C 30.4 °F /  -0.9 °C 30.34 in /  1027.3 hPa NNW 5.0 mph /  8 km/h 8.0 mph /  12.9 km/h 85 % 0.00 in /  0 mm 0 W/m2
21:55 34.5 °F /  1.4 °C 30.5 °F /  -0.8 °C 30.33 in /  1027 hPa NNW 5.0 mph /  8 km/h 8.0 mph /  12.9 km/h 85 % 0.00 in /  0 mm 0 W/m2
22:00 34.4 °F /  1.3 °C 30.4 °F /  -0.9 °C 30.33 in /  1027 hPa NNW 3.0 mph /  4.8 km/h 3.0 mph /  4.8 km/h 85 % 0.00 in /  0 mm 0 W/m2
22:05 34.4 °F /  1.3 °C 30.6 °F /  -0.8 °C 30.33 in /  1027 hPa NNW 3.0 mph /  4.8 km/h 8.0 mph /  12.9 km/h 86 % 0.00 in /  0 mm 0 W/m2
22:10 34.3 °F /  1.3 °C 30.5 °F /  -0.8 °C 30.33 in /  1027 hPa NW 3.0 mph /  4.8 km/h 3.0 mph /  4.8 km/h 86 % 0.00 in /  0 mm 0 W/m2
22:20 34.2 °F /  1.2 °C 30.7 °F /  -0.7 °C 30.33 in /  1027 hPa NNW 4.0 mph /  6.4 km/h 8.0 mph /  12.9 km/h 87 % 0.00 in /  0 mm 0 W/m2
22:30 34.2 °F /  1.2 °C 30.7 °F /  -0.7 °C 30.33 in /  1027 hPa NW 4.0 mph /  6.4 km/h 9.0 mph /  14.5 km/h 87 % 0.00 in /  0 mm 0 W/m2
22:35 34.2 °F /  1.2 °C 30.7 °F /  -0.7 °C 30.33 in /  1027 hPa NNW 5.0 mph /  8 km/h 9.0 mph /  14.5 km/h 87 % 0.00 in /  0 mm 0 W/m2
22:40 34.2 °F /  1.2 °C 30.7 °F /  -0.7 °C 30.33 in /  1027 hPa NNW 4.0 mph /  6.4 km/h 8.0 mph /  12.9 km/h 87 % 0.00 in /  0 mm 0 W/m2
22:45 34.2 °F /  1.2 °C 30.7 °F /  -0.7 °C 30.33 in /  1027 hPa NW 4.0 mph /  6.4 km/h 8.0 mph /  12.9 km/h 87 % 0.00 in /  0 mm 0 W/m2
22:50 34.2 °F /  1.2 °C 30.7 °F /  -0.7 °C 30.32 in /  1026.6 hPa NNW 5.0 mph /  8 km/h 5.0 mph /  8 km/h 87 % 0.00 in /  0 mm 0 W/m2
23:00 34.2 °F /  1.2 °C 30.7 °F /  -0.7 °C 30.32 in /  1026.6 hPa NNW 4.0 mph /  6.4 km/h 8.0 mph /  12.9 km/h 87 % 0.00 in /  0 mm 0 W/m2
23:10 34.3 °F /  1.3 °C 30.8 °F /  -0.7 °C 30.32 in /  1026.6 hPa North 4.0 mph /  6.4 km/h 8.0 mph /  12.9 km/h 87 % 0.00 in /  0 mm 0 W/m2
23:15 34.3 °F /  1.3 °C 30.8 °F /  -0.7 °C 30.32 in /  1026.6 hPa NNW 3.0 mph /  4.8 km/h 10.0 mph /  16.1 km/h 87 % 0.00 in /  0 mm 0 W/m2
23:20 34.3 °F /  1.3 °C 30.8 °F /  -0.7 °C 30.32 in /  1026.6 hPa NNW 5.0 mph /  8 km/h 8.0 mph /  12.9 km/h 87 % 0.00 in /  0 mm 0 W/m2
23:25 34.4 °F /  1.3 °C 30.6 °F /  -0.8 °C 30.32 in /  1026.6 hPa NW 7.0 mph /  11.3 km/h 8.0 mph /  12.9 km/h 86 % 0.00 in /  0 mm 0 W/m2
23:35 34.5 °F /  1.4 °C 30.7 °F /  -0.7 °C 30.32 in /  1026.6 hPa North 5.0 mph /  8 km/h 8.0 mph /  12.9 km/h 86 % 0.00 in /  0 mm 0 W/m2
23:40 34.5 °F /  1.4 °C 30.7 °F /  -0.7 °C 30.31 in /  1026.3 hPa NNW 5.0 mph /  8 km/h 8.0 mph /  12.9 km/h 86 % 0.00 in /  0 mm 0 W/m2
23:45 34.6 °F /  1.4 °C 30.6 °F /  -0.8 °C 30.31 in /  1026.3 hPa NNW 6.0 mph /  9.7 km/h 8.0 mph /  12.9 km/h 85 % 0.00 in /  0 mm 0 W/m2
23:50 34.6 °F /  1.4 °C 30.6 °F /  -0.8 °C 30.31 in /  1026.3 hPa NW 6.0 mph /  9.7 km/h 8.0 mph /  12.9 km/h 85 % 0.00 in /  0 mm 0 W/m2
23:55 34.7 °F /  1.5 °C 30.7 °F /  -0.7 °C 30.31 in /  1026.3 hPa NNE 4.0 mph /  6.4 km/h 8.0 mph /  12.9 km/h 85 % 0.00 in /  0 mm 0 W/m2
Delerius-Weather
Compliments of Weather Underground - 2 mb

Data updates at regular intervals.